Aviation Digital Data Service (ADDS)

Output produced by METARs form (1209 UTC 22 October 2014)
found at http://aviationweather.gov/adds/metars/
 
KARA 221120Z 2212/2312 05004KT P6SM SKC 
     FM221400 05009KT P6SM SCT250